This is the latest recevied weather packets stored in our database for station/object AD8IZ-13. If no packets are shown the sender has not sent any weather packets the latest 10 day(s).
| Time | Temp. | Humidity | Pressure | Rain* | Wind** | Luminosity | Snow |
|---|---|---|---|---|---|---|---|
| 1777568118 | 9.44° C | 81% | 1015.8 hPa | 0 mm | - | 456 W/m² | - |
| 1777567518 | 9.44° C | 79% | 1015.9 hPa | 0 mm | - | 192 W/m² | - |
| 1777566918 | 9.44° C | 80% | 1015.9 hPa | 0 mm | - | 427 W/m² | - |
| 1777566318 | 9.44° C | 82% | 1015.9 hPa | 0 mm | - | 410 W/m² | - |
| 1777565719 | 8.89° C | 85% | 1016 hPa | 0 mm | - | 515 W/m² | - |
| 1777565119 | 9.44° C | 83% | 1016 hPa | 0 mm | - | 259 W/m² | - |
| 1777564519 | 9.44° C | 81% | 1015.9 hPa | 0 mm | - | 231 W/m² | - |
| 1777563919 | 8.33° C | 83% | 1016 hPa | 0 mm | - | 371 W/m² | - |
| 1777563322 | 8.33° C | 84% | 1016 hPa | 0.25 mm | - | 211 W/m² | - |
| 1777562723 | 8.33° C | 86% | 1016 hPa | 0.25 mm | - | 99 W/m² | - |
| 1777562123 | 8.89° C | 84% | 1015.9 hPa | 0 mm | - | 74 W/m² | - |
| 1777561520 | 8.33° C | 85% | 1015.7 hPa | 0 mm | - | 344 W/m² | - |
| 1777560925 | 8.33° C | 86% | 1015.6 hPa | 0.25 mm | - | 211 W/m² | - |
| 1777560323 | 8.33° C | 85% | 1015.6 hPa | 0.25 mm | - | 76 W/m² | - |
| 1777559723 | 8.33° C | 84% | 1015.5 hPa | 0 mm | - | 121 W/m² | - |
| 1777559120 | 8.33° C | 86% | 1015.4 hPa | 0 mm | - | 228 W/m² | - |
| 1777558525 | 7.78° C | 86% | 1015.4 hPa | 0 mm | - | 169 W/m² | - |
| 1777557921 | 7.78° C | 87% | 1015.2 hPa | 0 mm | - | 115 W/m² | - |
| 1777557322 | 7.78° C | 87% | 1015.1 hPa | 0 mm | - | 178 W/m² | - |
| 1777556723 | 7.78° C | 88% | 1014.9 hPa | 0 mm | - | 206 W/m² | - |
| 1777556121 | 7.78° C | 90% | 1014.8 hPa | 0 mm | - | 180 W/m² | - |
| 1777555521 | 7.22° C | 92% | 1014.7 hPa | 0 mm | - | 183 W/m² | - |
| 1777554924 | 7.22° C | 91% | 1014.6 hPa | 0 mm | - | 121 W/m² | - |
| 1777554322 | 7.78° C | 91% | 1014.5 hPa | 0 mm | - | 32 W/m² | - |
| 1777553719 | 7.78° C | 90% | 1014.2 hPa | 0 mm | - | 44 W/m² | - |
* Rain latest hour (hover to see other rain measurements)
** Current wind speed in m/s (hover to see current wind gust speed)